x

Matinicus Rock, Me (mism1) Weather Station

4:00 - Wed 16th Aug 2017 All times are EDT. -4 hours from GMT.

  • Wind
    5mph, 6mph gusts
  • Air Temp 67°f
  • Sea Pressure 1011.2mb
  • Matinicus Rock, Me
  • Matinicus Rock, Me

More Historic Weather Station data

Upgrade to MSW Pro to gain access to the past 30 days of data for over 8000 Wavebouys and Weather Stations around the globe.

Join

Comparision Forecast

View Surf forecast
   
mer. 08/16 4:00 5 6 mph 1011.2mb 67f
3:00 9 10 mph 1011.3mb 68f
2:00 9 9 mph 1011.3mb 67f
1:00 8 9 mph 1011.3mb 65f
12:00  -  2 mph 1011.5mb 67f
11:00 2 2 mph 1011.6mb 65f
10:00 5 6 mph 1011.5mb 63f
9:00 7 8 mph 1011.4mb 61f
8:00 10 10 mph 1011.1mb 60f
7:00 13 13 mph 1010.6mb 61f
6:00 13 13 mph 1010.2mb 61f
5:00 14 14 mph 1009.8mb 62f
4:00 16 16 mph 1009.5mb 62f
3:00 18 18 mph 1009.5mb 63f
2:00 22 23 mph 1009.3mb 64f
1:00 18 20 mph 1009.5mb 63f
12:00 20 20 mph 1010.2mb 64f
mar. 08/15 11:00 21 22 mph 1010.5mb 64f
10:00 20 20 mph 1010.9mb 63f
9:00 18 20 mph 1010.7mb 63f
8:00 21 22 mph 1010.9mb 63f
7:00 21 22 mph 1011.2mb 62f
6:00 14 15 mph 1011mb 64f
5:00 17 17 mph 1011.5mb 63f
4:00 14 15 mph 1012.4mb 61f
3:00 13 13 mph 1012.5mb 61f
2:00 8 9 mph 1012.8mb 64f
1:00 10 10 mph 1013mb 63f
12:00 11 11 mph 1013.4mb 62f
11:00 13 14 mph 1013.6mb 62f
10:00 14 15 mph 1013.5mb 62f
9:00 10 11 mph 1013.9mb 60f
8:00 10 10 mph 1013.7mb 62f
7:00 11 13 mph 1014.2mb 62f
6:00 8 9 mph 1014.1mb 62f
5:00 14 14 mph 1014.1mb 62f
4:00 10 10 mph 1013.9mb 62f
3:00 14 15 mph 1014mb 62f
2:00 16 17 mph 1014.3mb 62f
1:00 16 17 mph 1014.3mb 62f
12:00 17 18 mph 1014.7mb 63f
lun. 08/14 11:00 18 18 mph 1014.9mb 63f
10:00 17 18 mph 1015.1mb 63f
9:00 16 16 mph 1015mb 64f
7:00 18 18 mph 1014.8mb 66f
6:00 16 17 mph 1014.9mb 66f
5:00 16 16 mph 1015.4mb 65f
4:00 13 13 mph 1015.8mb 67f
3:00 11 11 mph 1015.8mb 70f
2:00 11 11 mph 1016.4mb 70f
1:00 11 11 mph 1016.8mb 69f
12:00 11 11 mph 1017mb 65f
11:00 10 10 mph 1017.4mb 63f
10:00 11 11 mph 1017.4mb 63f
9:00 14 14 mph 1017.2mb 62f
8:00 14 15 mph 1017.1mb 64f
7:00 14 14 mph 1016.7mb 64f
6:00 15 15 mph 1016.2mb 64f
5:00 15 15 mph 1016mb 64f
4:00 14 14 mph 1015.8mb 63f
3:00 11 11 mph 1015.2mb 65f
2:00 15 16 mph 1014.8mb 67f
1:00 13 14 mph 1014.5mb 66f
12:00 15 15 mph 1014.2mb 69f
dim. 08/13 11:00 14 15 mph 1013.9mb 69f
10:00 11 13 mph 1013.7mb 69f
9:00 15 16 mph 1012.8mb 71f
8:00 16 17 mph 1012.2mb 66f
7:00 11 11 mph 1011.3mb 72f
6:00 16 16 mph 1010.5mb 67f
5:00 13 14 mph 1010.1mb 66f
4:00 17 17 mph 1009.7mb 65f
3:00 17 17 mph 1009.4mb 65f
2:00 20 21 mph 1009.2mb 64f
1:00 16 17 mph 1009mb 64f
12:00 16 16 mph 1009.4mb 63f
11:00 14 15 mph 1009.8mb 64f
10:00 14 15 mph 1009.8mb 63f
9:00 17 17 mph 1009.8mb 62f
8:00 21 22 mph 1009.4mb 64f
7:00 16 16 mph 1009.3mb 63f
6:00 17 17 mph 1008.8mb 63f
5:00 17 17 mph 1009.1mb 62f
4:00 20 20 mph 1008.7mb 63f
3:00 17 17 mph 1009.9mb 63f
2:00 15 15 mph 1010.5mb 62f
1:00 15 15 mph 1010.7mb 62f
12:00 17 17 mph 1011.1mb 62f
sam. 08/12 11:00 16 17 mph 1011.2mb 62f
10:00 17 17 mph 1011.4mb 62f